sensor_id;sensor_type;location;lat;lon;timestamp;P1;durP1;ratioP1;P2;durP2;ratioP2
57832;SDS011;43667;53.036;6.740;2023-07-13T00:00:23;6.38;;;1.83;;
57832;SDS011;43667;53.036;6.740;2023-07-13T00:02:48;8.77;;;1.88;;
57832;SDS011;43667;53.036;6.740;2023-07-13T00:05:14;8.88;;;2.28;;
57832;SDS011;43667;53.036;6.740;2023-07-13T00:07:40;7.00;;;2.13;;
57832;SDS011;43667;53.036;6.740;2023-07-13T00:10:06;11.27;;;2.20;;
57832;SDS011;43667;53.036;6.740;2023-07-13T00:12:33;7.20;;;2.17;;
57832;SDS011;43667;53.036;6.740;2023-07-13T00:15:02;10.65;;;2.38;;
57832;SDS011;43667;53.036;6.740;2023-07-13T00:17:35;7.25;;;2.05;;
57832;SDS011;43667;53.036;6.740;2023-07-13T00:20:00;9.07;;;2.47;;
57832;SDS011;43667;53.036;6.740;2023-07-13T00:22:26;9.70;;;2.15;;
57832;SDS011;43667;53.036;6.740;2023-07-13T00:24:52;13.43;;;2.30;;
57832;SDS011;43667;53.036;6.740;2023-07-13T00:27:21;12.45;;;2.28;;
57832;SDS011;43667;53.036;6.740;2023-07-13T00:29:47;8.98;;;2.35;;
57832;SDS011;43667;53.036;6.740;2023-07-13T00:32:13;13.05;;;2.20;;
57832;SDS011;43667;53.036;6.740;2023-07-13T00:34:38;13.10;;;2.60;;
57832;SDS011;43667;53.036;6.740;2023-07-13T00:37:05;11.57;;;2.03;;
57832;SDS011;43667;53.036;6.740;2023-07-13T00:39:32;9.48;;;2.40;;
57832;SDS011;43667;53.036;6.740;2023-07-13T00:41:59;10.93;;;2.03;;
57832;SDS011;43667;53.036;6.740;2023-07-13T00:44:25;16.48;;;3.33;;
57832;SDS011;43667;53.036;6.740;2023-07-13T00:46:51;15.48;;;2.45;;
57832;SDS011;43667;53.036;6.740;2023-07-13T00:49:18;12.50;;;2.35;;
57832;SDS011;43667;53.036;6.740;2023-07-13T00:51:55;13.43;;;2.72;;
57832;SDS011;43667;53.036;6.740;2023-07-13T00:54:28;13.55;;;2.78;;
57832;SDS011;43667;53.036;6.740;2023-07-13T00:56:58;13.40;;;2.70;;
57832;SDS011;43667;53.036;6.740;2023-07-13T00:59:26;14.77;;;2.70;;
57832;SDS011;43667;53.036;6.740;2023-07-13T01:01:52;11.23;;;2.45;;
57832;SDS011;43667;53.036;6.740;2023-07-13T01:04:18;14.30;;;3.35;;
57832;SDS011;43667;53.036;6.740;2023-07-13T01:06:44;15.70;;;3.08;;
57832;SDS011;43667;53.036;6.740;2023-07-13T01:09:12;13.48;;;3.22;;
57832;SDS011;43667;53.036;6.740;2023-07-13T01:11:38;12.48;;;2.63;;
57832;SDS011;43667;53.036;6.740;2023-07-13T01:14:04;14.18;;;3.10;;
57832;SDS011;43667;53.036;6.740;2023-07-13T01:16:31;12.13;;;3.13;;
57832;SDS011;43667;53.036;6.740;2023-07-13T01:18:58;13.93;;;2.60;;
57832;SDS011;43667;53.036;6.740;2023-07-13T01:21:26;14.35;;;2.88;;
57832;SDS011;43667;53.036;6.740;2023-07-13T01:23:53;13.57;;;2.60;;
57832;SDS011;43667;53.036;6.740;2023-07-13T01:26:20;13.55;;;2.72;;
57832;SDS011;43667;53.036;6.740;2023-07-13T01:28:46;15.48;;;3.70;;
57832;SDS011;43667;53.036;6.740;2023-07-13T01:31:12;12.05;;;2.67;;
57832;SDS011;43667;53.036;6.740;2023-07-13T01:33:39;13.07;;;3.35;;
57832;SDS011;43667;53.036;6.740;2023-07-13T01:36:08;16.00;;;3.53;;
57832;SDS011;43667;53.036;6.740;2023-07-13T01:38:35;15.48;;;2.92;;
57832;SDS011;43667;53.036;6.740;2023-07-13T01:41:01;15.07;;;3.10;;
57832;SDS011;43667;53.036;6.740;2023-07-13T01:43:27;10.80;;;2.90;;
57832;SDS011;43667;53.036;6.740;2023-07-13T01:45:53;12.60;;;2.80;;
57832;SDS011;43667;53.036;6.740;2023-07-13T01:48:19;12.82;;;2.60;;
57832;SDS011;43667;53.036;6.740;2023-07-13T01:50:45;13.35;;;3.20;;
57832;SDS011;43667;53.036;6.740;2023-07-13T01:53:12;15.10;;;3.17;;
57832;SDS011;43667;53.036;6.740;2023-07-13T01:55:37;11.95;;;2.92;;
57832;SDS011;43667;53.036;6.740;2023-07-13T01:58:03;11.85;;;2.90;;
57832;SDS011;43667;53.036;6.740;2023-07-13T02:00:29;14.13;;;3.05;;
57832;SDS011;43667;53.036;6.740;2023-07-13T02:02:55;13.73;;;3.40;;
57832;SDS011;43667;53.036;6.740;2023-07-13T02:05:21;12.93;;;3.15;;
57832;SDS011;43667;53.036;6.740;2023-07-13T02:07:47;11.68;;;2.90;;
57832;SDS011;43667;53.036;6.740;2023-07-13T02:10:14;14.75;;;3.17;;
57832;SDS011;43667;53.036;6.740;2023-07-13T02:12:40;14.13;;;2.70;;
57832;SDS011;43667;53.036;6.740;2023-07-13T02:15:07;12.15;;;2.60;;
57832;SDS011;43667;53.036;6.740;2023-07-13T02:17:34;13.63;;;2.83;;
57832;SDS011;43667;53.036;6.740;2023-07-13T02:20:00;16.77;;;3.20;;
57832;SDS011;43667;53.036;6.740;2023-07-13T02:22:25;11.20;;;3.58;;
57832;SDS011;43667;53.036;6.740;2023-07-13T02:24:51;10.98;;;2.83;;
57832;SDS011;43667;53.036;6.740;2023-07-13T02:27:17;12.25;;;2.90;;
57832;SDS011;43667;53.036;6.740;2023-07-13T02:29:43;12.68;;;2.88;;
57832;SDS011;43667;53.036;6.740;2023-07-13T02:32:09;10.63;;;2.63;;
57832;SDS011;43667;53.036;6.740;2023-07-13T02:34:35;16.08;;;2.85;;
57832;SDS011;43667;53.036;6.740;2023-07-13T02:37:00;17.73;;;2.80;;
57832;SDS011;43667;53.036;6.740;2023-07-13T02:39:26;12.93;;;2.72;;
57832;SDS011;43667;53.036;6.740;2023-07-13T02:41:52;13.07;;;3.22;;
57832;SDS011;43667;53.036;6.740;2023-07-13T02:44:17;13.98;;;3.30;;
57832;SDS011;43667;53.036;6.740;2023-07-13T02:46:43;16.05;;;2.55;;
57832;SDS011;43667;53.036;6.740;2023-07-13T02:49:09;14.45;;;3.22;;
57832;SDS011;43667;53.036;6.740;2023-07-13T02:51:35;14.25;;;3.60;;
57832;SDS011;43667;53.036;6.740;2023-07-13T02:54:01;18.55;;;3.17;;
57832;SDS011;43667;53.036;6.740;2023-07-13T02:56:28;15.82;;;3.15;;
57832;SDS011;43667;53.036;6.740;2023-07-13T02:58:55;14.07;;;2.92;;
57832;SDS011;43667;53.036;6.740;2023-07-13T03:01:21;16.50;;;3.83;;
57832;SDS011;43667;53.036;6.740;2023-07-13T03:03:51;15.55;;;3.30;;
57832;SDS011;43667;53.036;6.740;2023-07-13T03:06:17;13.82;;;3.30;;
57832;SDS011;43667;53.036;6.740;2023-07-13T03:08:43;13.00;;;3.45;;
57832;SDS011;43667;53.036;6.740;2023-07-13T03:11:11;13.75;;;3.17;;
57832;SDS011;43667;53.036;6.740;2023-07-13T03:13:41;13.95;;;3.25;;
57832;SDS011;43667;53.036;6.740;2023-07-13T03:16:07;13.98;;;3.58;;
57832;SDS011;43667;53.036;6.740;2023-07-13T03:18:35;16.80;;;3.42;;
57832;SDS011;43667;53.036;6.740;2023-07-13T03:21:01;15.95;;;3.83;;
57832;SDS011;43667;53.036;6.740;2023-07-13T03:23:28;19.13;;;4.00;;
57832;SDS011;43667;53.036;6.740;2023-07-13T03:26:04;14.45;;;3.45;;
57832;SDS011;43667;53.036;6.740;2023-07-13T03:28:38;12.40;;;3.00;;
57832;SDS011;43667;53.036;6.740;2023-07-13T03:31:06;16.98;;;3.60;;
57832;SDS011;43667;53.036;6.740;2023-07-13T03:33:37;13.90;;;3.28;;
57832;SDS011;43667;53.036;6.740;2023-07-13T03:36:03;17.95;;;3.58;;
57832;SDS011;43667;53.036;6.740;2023-07-13T03:38:30;16.38;;;3.30;;
57832;SDS011;43667;53.036;6.740;2023-07-13T03:40:56;13.48;;;3.92;;
57832;SDS011;43667;53.036;6.740;2023-07-13T03:43:22;14.73;;;3.38;;
57832;SDS011;43667;53.036;6.740;2023-07-13T03:45:47;13.25;;;3.45;;
57832;SDS011;43667;53.036;6.740;2023-07-13T03:48:13;17.80;;;3.80;;
57832;SDS011;43667;53.036;6.740;2023-07-13T03:50:39;13.93;;;3.53;;
57832;SDS011;43667;53.036;6.740;2023-07-13T03:53:05;16.48;;;3.80;;
57832;SDS011;43667;53.036;6.740;2023-07-13T03:55:31;17.50;;;3.97;;
57832;SDS011;43667;53.036;6.740;2023-07-13T03:57:58;18.15;;;4.07;;
57832;SDS011;43667;53.036;6.740;2023-07-13T04:00:42;15.48;;;3.28;;
57832;SDS011;43667;53.036;6.740;2023-07-13T04:03:08;13.90;;;3.47;;
57832;SDS011;43667;53.036;6.740;2023-07-13T04:05:33;13.32;;;3.28;;
57832;SDS011;43667;53.036;6.740;2023-07-13T04:07:59;21.33;;;4.47;;
57832;SDS011;43667;53.036;6.740;2023-07-13T04:10:24;17.67;;;3.50;;
57832;SDS011;43667;53.036;6.740;2023-07-13T04:12:50;15.43;;;3.58;;
57832;SDS011;43667;53.036;6.740;2023-07-13T04:15:16;19.20;;;4.45;;
57832;SDS011;43667;53.036;6.740;2023-07-13T04:17:41;15.63;;;3.70;;
57832;SDS011;43667;53.036;6.740;2023-07-13T04:20:07;20.40;;;5.10;;
57832;SDS011;43667;53.036;6.740;2023-07-13T04:22:33;16.20;;;3.40;;
57832;SDS011;43667;53.036;6.740;2023-07-13T04:24:58;18.77;;;4.05;;
57832;SDS011;43667;53.036;6.740;2023-07-13T04:27:24;15.30;;;3.03;;
57832;SDS011;43667;53.036;6.740;2023-07-13T04:29:50;14.88;;;3.53;;
57832;SDS011;43667;53.036;6.740;2023-07-13T04:34:52;12.73;;;3.65;;
57832;SDS011;43667;53.036;6.740;2023-07-13T04:37:20;13.88;;;3.28;;
57832;SDS011;43667;53.036;6.740;2023-07-13T04:39:46;11.50;;;3.00;;
57832;SDS011;43667;53.036;6.740;2023-07-13T04:42:12;16.23;;;3.28;;
57832;SDS011;43667;53.036;6.740;2023-07-13T04:44:37;15.00;;;3.90;;
57832;SDS011;43667;53.036;6.740;2023-07-13T04:47:03;15.13;;;3.78;;
57832;SDS011;43667;53.036;6.740;2023-07-13T04:49:29;15.38;;;3.75;;
57832;SDS011;43667;53.036;6.740;2023-07-13T04:51:55;12.10;;;3.10;;
57832;SDS011;43667;53.036;6.740;2023-07-13T04:54:21;19.52;;;4.20;;
57832;SDS011;43667;53.036;6.740;2023-07-13T04:56:46;15.68;;;3.50;;
57832;SDS011;43667;53.036;6.740;2023-07-13T04:59:12;16.25;;;3.50;;
57832;SDS011;43667;53.036;6.740;2023-07-13T05:01:38;13.52;;;3.65;;
57832;SDS011;43667;53.036;6.740;2023-07-13T05:04:04;15.13;;;4.18;;
57832;SDS011;43667;53.036;6.740;2023-07-13T05:06:30;15.98;;;4.05;;
57832;SDS011;43667;53.036;6.740;2023-07-13T05:08:56;12.13;;;3.75;;
57832;SDS011;43667;53.036;6.740;2023-07-13T05:11:22;17.38;;;4.28;;
57832;SDS011;43667;53.036;6.740;2023-07-13T05:13:49;19.30;;;3.92;;
57832;SDS011;43667;53.036;6.740;2023-07-13T05:16:15;14.50;;;3.80;;
57832;SDS011;43667;53.036;6.740;2023-07-13T05:18:40;15.80;;;3.83;;
57832;SDS011;43667;53.036;6.740;2023-07-13T05:21:08;18.48;;;4.18;;
57832;SDS011;43667;53.036;6.740;2023-07-13T05:23:35;18.50;;;3.72;;
57832;SDS011;43667;53.036;6.740;2023-07-13T05:26:01;14.32;;;3.65;;
57832;SDS011;43667;53.036;6.740;2023-07-13T05:28:28;14.65;;;3.60;;
57832;SDS011;43667;53.036;6.740;2023-07-13T05:30:55;16.45;;;3.72;;
57832;SDS011;43667;53.036;6.740;2023-07-13T05:33:21;13.68;;;4.05;;
57832;SDS011;43667;53.036;6.740;2023-07-13T05:35:46;12.63;;;3.53;;
57832;SDS011;43667;53.036;6.740;2023-07-13T05:38:12;12.07;;;3.58;;
57832;SDS011;43667;53.036;6.740;2023-07-13T05:40:38;18.13;;;4.10;;
57832;SDS011;43667;53.036;6.740;2023-07-13T05:43:04;14.02;;;3.20;;
57832;SDS011;43667;53.036;6.740;2023-07-13T05:45:29;15.20;;;3.58;;
57832;SDS011;43667;53.036;6.740;2023-07-13T05:47:55;10.70;;;3.50;;
57832;SDS011;43667;53.036;6.740;2023-07-13T05:50:21;12.25;;;2.92;;
57832;SDS011;43667;53.036;6.740;2023-07-13T05:52:46;11.60;;;3.33;;
57832;SDS011;43667;53.036;6.740;2023-07-13T05:55:12;9.38;;;2.88;;
57832;SDS011;43667;53.036;6.740;2023-07-13T05:57:38;16.45;;;3.38;;
57832;SDS011;43667;53.036;6.740;2023-07-13T06:00:04;12.73;;;3.13;;
57832;SDS011;43667;53.036;6.740;2023-07-13T06:02:30;15.20;;;3.20;;
57832;SDS011;43667;53.036;6.740;2023-07-13T06:04:55;10.50;;;3.13;;
57832;SDS011;43667;53.036;6.740;2023-07-13T06:07:21;16.63;;;3.15;;
57832;SDS011;43667;53.036;6.740;2023-07-13T06:09:47;13.07;;;2.97;;
57832;SDS011;43667;53.036;6.740;2023-07-13T06:12:12;10.35;;;2.65;;
57832;SDS011;43667;53.036;6.740;2023-07-13T06:14:38;13.48;;;2.97;;
57832;SDS011;43667;53.036;6.740;2023-07-13T06:17:04;12.90;;;2.85;;
57832;SDS011;43667;53.036;6.740;2023-07-13T06:19:30;14.20;;;3.40;;
57832;SDS011;43667;53.036;6.740;2023-07-13T06:21:55;9.73;;;2.58;;
57832;SDS011;43667;53.036;6.740;2023-07-13T06:24:23;11.73;;;2.90;;
57832;SDS011;43667;53.036;6.740;2023-07-13T06:26:49;10.32;;;2.60;;
57832;SDS011;43667;53.036;6.740;2023-07-13T06:29:15;10.27;;;3.00;;
57832;SDS011;43667;53.036;6.740;2023-07-13T06:31:40;10.88;;;2.60;;
57832;SDS011;43667;53.036;6.740;2023-07-13T06:34:06;11.25;;;2.78;;
57832;SDS011;43667;53.036;6.740;2023-07-13T06:36:32;12.30;;;2.58;;
57832;SDS011;43667;53.036;6.740;2023-07-13T06:38:57;12.23;;;2.88;;
57832;SDS011;43667;53.036;6.740;2023-07-13T06:41:23;11.38;;;3.33;;
57832;SDS011;43667;53.036;6.740;2023-07-13T06:43:51;10.43;;;2.72;;
57832;SDS011;43667;53.036;6.740;2023-07-13T06:46:17;9.23;;;2.47;;
57832;SDS011;43667;53.036;6.740;2023-07-13T06:48:43;10.48;;;2.88;;
57832;SDS011;43667;53.036;6.740;2023-07-13T06:51:08;8.73;;;3.05;;
57832;SDS011;43667;53.036;6.740;2023-07-13T06:53:34;11.55;;;2.50;;
57832;SDS011;43667;53.036;6.740;2023-07-13T06:56:00;10.10;;;2.80;;
57832;SDS011;43667;53.036;6.740;2023-07-13T06:58:25;12.35;;;2.42;;
57832;SDS011;43667;53.036;6.740;2023-07-13T07:00:51;9.75;;;2.35;;
57832;SDS011;43667;53.036;6.740;2023-07-13T07:03:17;12.38;;;2.83;;
57832;SDS011;43667;53.036;6.740;2023-07-13T07:05:43;8.30;;;1.80;;
57832;SDS011;43667;53.036;6.740;2023-07-13T07:08:09;8.52;;;1.92;;
57832;SDS011;43667;53.036;6.740;2023-07-13T07:10:35;9.88;;;2.92;;
57832;SDS011;43667;53.036;6.740;2023-07-13T07:13:01;9.90;;;2.08;;
57832;SDS011;43667;53.036;6.740;2023-07-13T07:15:27;8.77;;;2.10;;
57832;SDS011;43667;53.036;6.740;2023-07-13T07:17:53;10.55;;;2.70;;
57832;SDS011;43667;53.036;6.740;2023-07-13T07:20:19;11.02;;;2.20;;
57832;SDS011;43667;53.036;6.740;2023-07-13T07:22:45;8.50;;;2.25;;
57832;SDS011;43667;53.036;6.740;2023-07-13T07:25:11;8.57;;;1.83;;
57832;SDS011;43667;53.036;6.740;2023-07-13T07:27:37;10.27;;;1.98;;
57832;SDS011;43667;53.036;6.740;2023-07-13T07:30:04;8.23;;;2.03;;
57832;SDS011;43667;53.036;6.740;2023-07-13T07:32:30;10.82;;;2.00;;
57832;SDS011;43667;53.036;6.740;2023-07-13T07:34:56;8.98;;;1.52;;
57832;SDS011;43667;53.036;6.740;2023-07-13T07:37:23;5.65;;;1.60;;
57832;SDS011;43667;53.036;6.740;2023-07-13T07:39:48;7.40;;;1.70;;
57832;SDS011;43667;53.036;6.740;2023-07-13T07:42:14;4.80;;;1.40;;
57832;SDS011;43667;53.036;6.740;2023-07-13T07:44:41;9.13;;;1.60;;
57832;SDS011;43667;53.036;6.740;2023-07-13T07:47:07;7.28;;;1.85;;
57832;SDS011;43667;53.036;6.740;2023-07-13T07:49:33;6.03;;;1.60;;
57832;SDS011;43667;53.036;6.740;2023-07-13T07:51:59;6.50;;;1.55;;
57832;SDS011;43667;53.036;6.740;2023-07-13T07:54:24;8.40;;;2.03;;
57832;SDS011;43667;53.036;6.740;2023-07-13T07:56:50;7.82;;;2.00;;
57832;SDS011;43667;53.036;6.740;2023-07-13T07:59:16;8.52;;;1.60;;
57832;SDS011;43667;53.036;6.740;2023-07-13T08:01:41;8.68;;;2.20;;
57832;SDS011;43667;53.036;6.740;2023-07-13T08:04:08;7.03;;;2.28;;
57832;SDS011;43667;53.036;6.740;2023-07-13T08:06:34;12.88;;;2.25;;
57832;SDS011;43667;53.036;6.740;2023-07-13T08:09:00;21.63;;;3.53;;
57832;SDS011;43667;53.036;6.740;2023-07-13T08:11:27;17.50;;;3.22;;
57832;SDS011;43667;53.036;6.740;2023-07-13T08:13:53;8.85;;;2.40;;
57832;SDS011;43667;53.036;6.740;2023-07-13T08:16:18;9.07;;;1.98;;
57832;SDS011;43667;53.036;6.740;2023-07-13T08:18:44;6.22;;;1.88;;
57832;SDS011;43667;53.036;6.740;2023-07-13T08:21:10;6.10;;;1.65;;
57832;SDS011;43667;53.036;6.740;2023-07-13T08:23:35;8.18;;;2.10;;
57832;SDS011;43667;53.036;6.740;2023-07-13T08:26:01;6.72;;;2.20;;
57832;SDS011;43667;53.036;6.740;2023-07-13T08:28:28;8.38;;;2.10;;
57832;SDS011;43667;53.036;6.740;2023-07-13T08:30:54;8.07;;;2.30;;
57832;SDS011;43667;53.036;6.740;2023-07-13T08:33:20;9.25;;;2.22;;
57832;SDS011;43667;53.036;6.740;2023-07-13T08:35:49;7.85;;;2.17;;
57832;SDS011;43667;53.036;6.740;2023-07-13T08:38:15;8.32;;;2.63;;
57832;SDS011;43667;53.036;6.740;2023-07-13T08:40:42;19.90;;;4.45;;
57832;SDS011;43667;53.036;6.740;2023-07-13T08:43:09;12.10;;;3.60;;
57832;SDS011;43667;53.036;6.740;2023-07-13T08:45:43;12.35;;;2.72;;
57832;SDS011;43667;53.036;6.740;2023-07-13T08:48:27;8.95;;;1.92;;
57832;SDS011;43667;53.036;6.740;2023-07-13T08:51:02;28.48;;;4.95;;
57832;SDS011;43667;53.036;6.740;2023-07-13T08:54:08;30.63;;;3.92;;
57832;SDS011;43667;53.036;6.740;2023-07-13T08:56:37;15.52;;;3.60;;
57832;SDS011;43667;53.036;6.740;2023-07-13T08:59:11;9.85;;;2.85;;
57832;SDS011;43667;53.036;6.740;2023-07-13T09:04:50;8.77;;;2.88;;
57832;SDS011;43667;53.036;6.740;2023-07-13T09:07:40;10.45;;;3.35;;
57832;SDS011;43667;53.036;6.740;2023-07-13T09:12:51;10.38;;;2.90;;
57832;SDS011;43667;53.036;6.740;2023-07-13T09:15:39;5.75;;;2.30;;
57832;SDS011;43667;53.036;6.740;2023-07-13T09:18:16;7.15;;;2.05;;
57832;SDS011;43667;53.036;6.740;2023-07-13T09:20:51;9.80;;;3.20;;
57832;SDS011;43667;53.036;6.740;2023-07-13T09:23:28;5.38;;;2.63;;
57832;SDS011;43667;53.036;6.740;2023-07-13T09:26:16;7.13;;;2.78;;
57832;SDS011;43667;53.036;6.740;2023-07-13T09:28:44;7.43;;;1.92;;
57832;SDS011;43667;53.036;6.740;2023-07-13T09:33:53;4.13;;;1.85;;
57832;SDS011;43667;53.036;6.740;2023-07-13T09:36:24;7.40;;;2.00;;
57832;SDS011;43667;53.036;6.740;2023-07-13T09:39:02;4.18;;;2.15;;
57832;SDS011;43667;53.036;6.740;2023-07-13T09:44:11;5.50;;;2.47;;
57832;SDS011;43667;53.036;6.740;2023-07-13T09:46:45;5.47;;;2.42;;
57832;SDS011;43667;53.036;6.740;2023-07-13T09:49:17;7.97;;;2.55;;
57832;SDS011;43667;53.036;6.740;2023-07-13T09:51:43;6.65;;;3.10;;
57832;SDS011;43667;53.036;6.740;2023-07-13T09:54:23;6.97;;;3.30;;
57832;SDS011;43667;53.036;6.740;2023-07-13T09:56:56;8.52;;;3.30;;
57832;SDS011;43667;53.036;6.740;2023-07-13T09:59:26;9.32;;;3.83;;
57832;SDS011;43667;53.036;6.740;2023-07-13T10:01:57;11.75;;;4.40;;
57832;SDS011;43667;53.036;6.740;2023-07-13T10:04:28;6.25;;;2.60;;
57832;SDS011;43667;53.036;6.740;2023-07-13T10:07:08;4.90;;;2.45;;
57832;SDS011;43667;53.036;6.740;2023-07-13T10:09:38;3.42;;;2.22;;
57832;SDS011;43667;53.036;6.740;2023-07-13T10:12:04;5.70;;;2.83;;
57832;SDS011;43667;53.036;6.740;2023-07-13T10:14:39;4.63;;;2.20;;
57832;SDS011;43667;53.036;6.740;2023-07-13T10:17:08;4.80;;;2.72;;
57832;SDS011;43667;53.036;6.740;2023-07-13T10:19:39;4.97;;;2.40;;
57832;SDS011;43667;53.036;6.740;2023-07-13T10:22:19;4.38;;;2.20;;
57832;SDS011;43667;53.036;6.740;2023-07-13T10:24:54;3.85;;;2.42;;
57832;SDS011;43667;53.036;6.740;2023-07-13T10:27:32;2.95;;;1.90;;
57832;SDS011;43667;53.036;6.740;2023-07-13T10:30:17;4.10;;;2.38;;
57832;SDS011;43667;53.036;6.740;2023-07-13T10:32:45;3.55;;;2.00;;
57832;SDS011;43667;53.036;6.740;2023-07-13T10:35:14;3.97;;;2.00;;
57832;SDS011;43667;53.036;6.740;2023-07-13T10:37:56;3.55;;;2.10;;
57832;SDS011;43667;53.036;6.740;2023-07-13T10:40:37;5.50;;;2.60;;
57832;SDS011;43667;53.036;6.740;2023-07-13T10:43:04;4.82;;;2.17;;
57832;SDS011;43667;53.036;6.740;2023-07-13T10:45:38;3.15;;;1.98;;
57832;SDS011;43667;53.036;6.740;2023-07-13T10:48:05;3.67;;;1.83;;
57832;SDS011;43667;53.036;6.740;2023-07-13T10:50:37;3.75;;;1.98;;
57832;SDS011;43667;53.036;6.740;2023-07-13T10:53:21;6.55;;;2.28;;
57832;SDS011;43667;53.036;6.740;2023-07-13T10:59:01;7.53;;;2.55;;
57832;SDS011;43667;53.036;6.740;2023-07-13T11:01:12;6.53;;;2.90;;
57832;SDS011;43667;53.036;6.740;2023-07-13T11:04:01;4.57;;;2.13;;
57832;SDS011;43667;53.036;6.740;2023-07-13T11:08:59;3.13;;;2.10;;
57832;SDS011;43667;53.036;6.740;2023-07-13T11:11:43;2.40;;;1.27;;
57832;SDS011;43667;53.036;6.740;2023-07-13T11:17:23;4.13;;;2.03;;
57832;SDS011;43667;53.036;6.740;2023-07-13T11:19:50;3.58;;;1.38;;
57832;SDS011;43667;53.036;6.740;2023-07-13T11:22:21;4.38;;;1.40;;
57832;SDS011;43667;53.036;6.740;2023-07-13T11:25:20;6.07;;;1.65;;
57832;SDS011;43667;53.036;6.740;2023-07-13T11:28:05;5.18;;;1.88;;
57832;SDS011;43667;53.036;6.740;2023-07-13T11:30:39;4.97;;;1.73;;
57832;SDS011;43667;53.036;6.740;2023-07-13T11:33:18;3.92;;;1.50;;
57832;SDS011;43667;53.036;6.740;2023-07-13T11:36:05;5.03;;;1.77;;
57832;SDS011;43667;53.036;6.740;2023-07-13T11:38:48;6.05;;;1.40;;
57832;SDS011;43667;53.036;6.740;2023-07-13T11:41:25;4.47;;;1.40;;
57832;SDS011;43667;53.036;6.740;2023-07-13T11:44:29;3.00;;;1.30;;
57832;SDS011;43667;53.036;6.740;2023-07-13T11:46:49;4.40;;;1.40;;
57832;SDS011;43667;53.036;6.740;2023-07-13T11:49:20;4.05;;;1.40;;
57832;SDS011;43667;53.036;6.740;2023-07-13T11:51:47;4.60;;;1.55;;
57832;SDS011;43667;53.036;6.740;2023-07-13T11:54:32;5.20;;;1.25;;
57832;SDS011;43667;53.036;6.740;2023-07-13T11:57:01;3.63;;;1.50;;
57832;SDS011;43667;53.036;6.740;2023-07-13T11:59:48;3.10;;;1.00;;
57832;SDS011;43667;53.036;6.740;2023-07-13T12:02:28;4.35;;;1.27;;
57832;SDS011;43667;53.036;6.740;2023-07-13T12:04:59;3.47;;;1.52;;
57832;SDS011;43667;53.036;6.740;2023-07-13T12:07:31;3.22;;;0.90;;
57832;SDS011;43667;53.036;6.740;2023-07-13T12:10:02;4.22;;;1.63;;
57832;SDS011;43667;53.036;6.740;2023-07-13T12:12:36;4.32;;;0.95;;
57832;SDS011;43667;53.036;6.740;2023-07-13T12:15:05;3.67;;;1.00;;
57832;SDS011;43667;53.036;6.740;2023-07-13T12:17:32;2.30;;;0.63;;
57832;SDS011;43667;53.036;6.740;2023-07-13T12:20:00;4.57;;;1.05;;
57832;SDS011;43667;53.036;6.740;2023-07-13T12:22:31;5.85;;;1.10;;
57832;SDS011;43667;53.036;6.740;2023-07-13T12:24:59;2.85;;;0.75;;
57832;SDS011;43667;53.036;6.740;2023-07-13T12:27:26;2.90;;;0.80;;
57832;SDS011;43667;53.036;6.740;2023-07-13T12:30:04;6.72;;;1.10;;
57832;SDS011;43667;53.036;6.740;2023-07-13T12:32:55;5.07;;;1.30;;
57832;SDS011;43667;53.036;6.740;2023-07-13T12:35:23;4.22;;;1.20;;
57832;SDS011;43667;53.036;6.740;2023-07-13T12:37:50;3.83;;;1.02;;
57832;SDS011;43667;53.036;6.740;2023-07-13T12:40:19;4.65;;;0.93;;
57832;SDS011;43667;53.036;6.740;2023-07-13T12:42:47;4.10;;;1.00;;
57832;SDS011;43667;53.036;6.740;2023-07-13T12:45:20;3.78;;;0.80;;
57832;SDS011;43667;53.036;6.740;2023-07-13T12:47:49;2.78;;;1.00;;
57832;SDS011;43667;53.036;6.740;2023-07-13T12:50:19;4.43;;;1.00;;
57832;SDS011;43667;53.036;6.740;2023-07-13T12:52:59;6.68;;;1.00;;
57832;SDS011;43667;53.036;6.740;2023-07-13T12:55:28;3.67;;;0.90;;
57832;SDS011;43667;53.036;6.740;2023-07-13T12:57:58;5.63;;;0.75;;
57832;SDS011;43667;53.036;6.740;2023-07-13T13:00:32;1.80;;;0.82;;
57832;SDS011;43667;53.036;6.740;2023-07-13T13:03:07;4.47;;;0.80;;
57832;SDS011;43667;53.036;6.740;2023-07-13T13:05:45;2.92;;;0.75;;
57832;SDS011;43667;53.036;6.740;2023-07-13T13:08:11;3.35;;;0.85;;
57832;SDS011;43667;53.036;6.740;2023-07-13T13:10:37;3.28;;;0.60;;
57832;SDS011;43667;53.036;6.740;2023-07-13T13:13:03;3.15;;;0.90;;
57832;SDS011;43667;53.036;6.740;2023-07-13T13:15:28;5.13;;;0.90;;
57832;SDS011;43667;53.036;6.740;2023-07-13T13:17:55;2.85;;;0.65;;
57832;SDS011;43667;53.036;6.740;2023-07-13T13:20:23;4.22;;;1.00;;
57832;SDS011;43667;53.036;6.740;2023-07-13T13:22:51;4.32;;;0.93;;
57832;SDS011;43667;53.036;6.740;2023-07-13T13:25:17;4.22;;;1.00;;
57832;SDS011;43667;53.036;6.740;2023-07-13T13:27:44;3.95;;;0.80;;
57832;SDS011;43667;53.036;6.740;2023-07-13T13:32:39;5.28;;;1.00;;
57832;SDS011;43667;53.036;6.740;2023-07-13T13:35:05;2.40;;;0.70;;
57832;SDS011;43667;53.036;6.740;2023-07-13T13:37:37;3.38;;;0.82;;
57832;SDS011;43667;53.036;6.740;2023-07-13T13:40:05;3.47;;;0.85;;
57832;SDS011;43667;53.036;6.740;2023-07-13T13:42:42;3.90;;;0.90;;
57832;SDS011;43667;53.036;6.740;2023-07-13T13:45:12;3.65;;;0.90;;
57832;SDS011;43667;53.036;6.740;2023-07-13T13:47:38;4.22;;;1.10;;
57832;SDS011;43667;53.036;6.740;2023-07-13T13:50:16;2.72;;;0.70;;
57832;SDS011;43667;53.036;6.740;2023-07-13T13:52:44;3.45;;;0.90;;
57832;SDS011;43667;53.036;6.740;2023-07-13T13:55:14;4.43;;;0.85;;
57832;SDS011;43667;53.036;6.740;2023-07-13T13:57:41;5.88;;;1.00;;
57832;SDS011;43667;53.036;6.740;2023-07-13T14:00:08;2.60;;;0.70;;
57832;SDS011;43667;53.036;6.740;2023-07-13T14:02:39;2.65;;;0.75;;
57832;SDS011;43667;53.036;6.740;2023-07-13T14:05:09;3.50;;;1.20;;
57832;SDS011;43667;53.036;6.740;2023-07-13T14:07:37;3.60;;;0.77;;
57832;SDS011;43667;53.036;6.740;2023-07-13T14:10:11;3.58;;;0.80;;
57832;SDS011;43667;53.036;6.740;2023-07-13T14:12:40;3.90;;;1.00;;
57832;SDS011;43667;53.036;6.740;2023-07-13T14:15:31;3.60;;;0.70;;
57832;SDS011;43667;53.036;6.740;2023-07-13T14:17:56;4.97;;;1.13;;
57832;SDS011;43667;53.036;6.740;2023-07-13T14:20:24;5.03;;;1.00;;
57832;SDS011;43667;53.036;6.740;2023-07-13T14:22:51;4.65;;;0.77;;
57832;SDS011;43667;53.036;6.740;2023-07-13T14:25:18;3.45;;;0.95;;
57832;SDS011;43667;53.036;6.740;2023-07-13T14:27:45;3.78;;;0.80;;
57832;SDS011;43667;53.036;6.740;2023-07-13T14:30:14;3.28;;;0.80;;
57832;SDS011;43667;53.036;6.740;2023-07-13T14:32:42;6.75;;;0.90;;
57832;SDS011;43667;53.036;6.740;2023-07-13T14:35:13;4.13;;;0.93;;
57832;SDS011;43667;53.036;6.740;2023-07-13T14:37:40;2.00;;;0.80;;
57832;SDS011;43667;53.036;6.740;2023-07-13T14:40:14;4.53;;;1.00;;
57832;SDS011;43667;53.036;6.740;2023-07-13T14:42:40;5.13;;;0.90;;
57832;SDS011;43667;53.036;6.740;2023-07-13T14:45:12;5.78;;;1.10;;
57832;SDS011;43667;53.036;6.740;2023-07-13T14:47:42;4.00;;;0.90;;
57832;SDS011;43667;53.036;6.740;2023-07-13T14:50:14;3.55;;;0.77;;
57832;SDS011;43667;53.036;6.740;2023-07-13T14:52:42;2.72;;;0.82;;
57832;SDS011;43667;53.036;6.740;2023-07-13T14:55:12;3.75;;;1.00;;
57832;SDS011;43667;53.036;6.740;2023-07-13T14:57:42;4.18;;;1.00;;
57832;SDS011;43667;53.036;6.740;2023-07-13T15:00:21;3.63;;;0.90;;
57832;SDS011;43667;53.036;6.740;2023-07-13T15:02:48;1.92;;;0.68;;
57832;SDS011;43667;53.036;6.740;2023-07-13T15:05:17;3.28;;;0.98;;
57832;SDS011;43667;53.036;6.740;2023-07-13T15:07:56;4.35;;;1.27;;
57832;SDS011;43667;53.036;6.740;2023-07-13T15:10:24;3.13;;;0.95;;
57832;SDS011;43667;53.036;6.740;2023-07-13T15:12:53;3.35;;;1.08;;
57832;SDS011;43667;53.036;6.740;2023-07-13T15:15:22;4.70;;;1.30;;